sensor_id;sensor_type;location;lat;lon;timestamp;P1;durP1;ratioP1;P2;durP2;ratioP2
23814;SDS011;12088;53.078;8.720;2022-11-15T00:00:48;5.17;;;2.70;;
23814;SDS011;12088;53.078;8.720;2022-11-15T00:03:15;2.70;;;2.50;;
23814;SDS011;12088;53.078;8.720;2022-11-15T00:05:41;6.80;;;2.13;;
23814;SDS011;12088;53.078;8.720;2022-11-15T00:08:07;4.03;;;3.63;;
23814;SDS011;12088;53.078;8.720;2022-11-15T00:10:33;2.80;;;2.60;;
23814;SDS011;12088;53.078;8.720;2022-11-15T00:12:59;3.70;;;3.03;;
23814;SDS011;12088;53.078;8.720;2022-11-15T00:15:24;2.37;;;2.17;;
23814;SDS011;12088;53.078;8.720;2022-11-15T00:17:50;5.90;;;2.47;;
23814;SDS011;12088;53.078;8.720;2022-11-15T00:20:16;3.27;;;2.97;;
23814;SDS011;12088;53.078;8.720;2022-11-15T00:22:42;2.83;;;2.63;;
23814;SDS011;12088;53.078;8.720;2022-11-15T00:25:08;5.93;;;1.80;;
23814;SDS011;12088;53.078;8.720;2022-11-15T00:27:33;2.40;;;1.60;;
23814;SDS011;12088;53.078;8.720;2022-11-15T00:29:59;3.60;;;2.70;;
23814;SDS011;12088;53.078;8.720;2022-11-15T00:32:25;5.47;;;2.57;;
23814;SDS011;12088;53.078;8.720;2022-11-15T00:34:51;1.93;;;1.70;;
23814;SDS011;12088;53.078;8.720;2022-11-15T00:37:16;8.70;;;2.93;;
23814;SDS011;12088;53.078;8.720;2022-11-15T00:39:42;5.60;;;3.50;;
23814;SDS011;12088;53.078;8.720;2022-11-15T00:42:07;2.27;;;2.07;;
23814;SDS011;12088;53.078;8.720;2022-11-15T00:44:33;2.50;;;2.40;;
23814;SDS011;12088;53.078;8.720;2022-11-15T00:46:58;3.43;;;2.47;;
23814;SDS011;12088;53.078;8.720;2022-11-15T00:49:24;2.30;;;2.07;;
23814;SDS011;12088;53.078;8.720;2022-11-15T00:51:49;3.73;;;3.43;;
23814;SDS011;12088;53.078;8.720;2022-11-15T00:54:15;7.23;;;2.67;;
23814;SDS011;12088;53.078;8.720;2022-11-15T00:56:40;4.47;;;3.07;;
23814;SDS011;12088;53.078;8.720;2022-11-15T00:59:06;1.87;;;1.50;;
23814;SDS011;12088;53.078;8.720;2022-11-15T01:01:31;2.30;;;2.10;;
23814;SDS011;12088;53.078;8.720;2022-11-15T01:03:57;3.37;;;2.33;;
23814;SDS011;12088;53.078;8.720;2022-11-15T01:06:23;3.47;;;2.57;;
23814;SDS011;12088;53.078;8.720;2022-11-15T01:08:48;2.67;;;2.13;;
23814;SDS011;12088;53.078;8.720;2022-11-15T01:11:14;2.80;;;2.60;;
23814;SDS011;12088;53.078;8.720;2022-11-15T01:13:39;7.03;;;2.33;;
23814;SDS011;12088;53.078;8.720;2022-11-15T01:16:06;3.27;;;2.97;;
23814;SDS011;12088;53.078;8.720;2022-11-15T01:18:36;1.40;;;1.30;;
23814;SDS011;12088;53.078;8.720;2022-11-15T01:21:09;3.10;;;2.30;;
23814;SDS011;12088;53.078;8.720;2022-11-15T01:23:37;1.93;;;1.83;;
23814;SDS011;12088;53.078;8.720;2022-11-15T01:26:03;1.73;;;1.57;;
23814;SDS011;12088;53.078;8.720;2022-11-15T01:28:31;2.47;;;2.27;;
23814;SDS011;12088;53.078;8.720;2022-11-15T01:30:59;2.37;;;2.10;;
23814;SDS011;12088;53.078;8.720;2022-11-15T01:33:29;2.03;;;1.90;;
23814;SDS011;12088;53.078;8.720;2022-11-15T01:35:55;2.63;;;2.43;;
23814;SDS011;12088;53.078;8.720;2022-11-15T01:38:21;5.77;;;3.50;;
23814;SDS011;12088;53.078;8.720;2022-11-15T01:40:50;1.53;;;1.20;;
23814;SDS011;12088;53.078;8.720;2022-11-15T01:43:19;5.07;;;2.20;;
23814;SDS011;12088;53.078;8.720;2022-11-15T01:45:51;2.23;;;2.03;;
23814;SDS011;12088;53.078;8.720;2022-11-15T01:48:21;2.90;;;1.90;;
23814;SDS011;12088;53.078;8.720;2022-11-15T01:50:50;2.87;;;2.60;;
23814;SDS011;12088;53.078;8.720;2022-11-15T01:53:16;2.80;;;2.60;;
23814;SDS011;12088;53.078;8.720;2022-11-15T01:55:44;1.47;;;1.47;;
23814;SDS011;12088;53.078;8.720;2022-11-15T01:58:10;1.80;;;1.70;;
23814;SDS011;12088;53.078;8.720;2022-11-15T02:00:35;4.27;;;2.70;;
23814;SDS011;12088;53.078;8.720;2022-11-15T02:03:01;2.93;;;1.83;;
23814;SDS011;12088;53.078;8.720;2022-11-15T02:05:27;1.53;;;1.43;;
23814;SDS011;12088;53.078;8.720;2022-11-15T02:07:55;3.10;;;2.43;;
23814;SDS011;12088;53.078;8.720;2022-11-15T02:10:21;3.30;;;2.40;;
23814;SDS011;12088;53.078;8.720;2022-11-15T02:12:48;2.97;;;2.70;;
23814;SDS011;12088;53.078;8.720;2022-11-15T02:15:15;2.10;;;2.00;;
23814;SDS011;12088;53.078;8.720;2022-11-15T02:23:27;3.37;;;3.07;;
23814;SDS011;12088;53.078;8.720;2022-11-15T02:26:21;5.67;;;2.63;;
23814;SDS011;12088;53.078;8.720;2022-11-15T02:29:10;2.57;;;1.57;;
23814;SDS011;12088;53.078;8.720;2022-11-15T02:37:16;3.73;;;2.03;;
23814;SDS011;12088;53.078;8.720;2022-11-15T02:40:07;2.70;;;2.03;;
23814;SDS011;12088;53.078;8.720;2022-11-15T02:42:57;1.70;;;1.60;;
23814;SDS011;12088;53.078;8.720;2022-11-15T02:45:48;1.93;;;1.83;;
23814;SDS011;12088;53.078;8.720;2022-11-15T02:48:19;1.60;;;1.50;;
23814;SDS011;12088;53.078;8.720;2022-11-15T02:50:47;1.50;;;1.40;;
23814;SDS011;12088;53.078;8.720;2022-11-15T02:53:14;3.00;;;1.80;;
23814;SDS011;12088;53.078;8.720;2022-11-15T02:55:46;3.23;;;1.43;;
23814;SDS011;12088;53.078;8.720;2022-11-15T03:01:08;2.10;;;2.00;;
23814;SDS011;12088;53.078;8.720;2022-11-15T03:09:09;4.40;;;2.53;;
23814;SDS011;12088;53.078;8.720;2022-11-15T03:11:53;4.43;;;1.90;;
23814;SDS011;12088;53.078;8.720;2022-11-15T03:14:31;1.33;;;1.27;;
23814;SDS011;12088;53.078;8.720;2022-11-15T03:17:18;9.20;;;2.80;;
23814;SDS011;12088;53.078;8.720;2022-11-15T03:20:01;4.27;;;1.50;;
23814;SDS011;12088;53.078;8.720;2022-11-15T03:22:32;2.30;;;2.20;;
23814;SDS011;12088;53.078;8.720;2022-11-15T03:25:02;1.57;;;1.47;;
23814;SDS011;12088;53.078;8.720;2022-11-15T03:27:33;3.97;;;3.50;;
23814;SDS011;12088;53.078;8.720;2022-11-15T03:30:04;2.80;;;2.00;;
23814;SDS011;12088;53.078;8.720;2022-11-15T03:32:40;3.60;;;2.20;;
23814;SDS011;12088;53.078;8.720;2022-11-15T03:35:11;1.57;;;1.47;;
23814;SDS011;12088;53.078;8.720;2022-11-15T03:37:41;3.27;;;2.50;;
23814;SDS011;12088;53.078;8.720;2022-11-15T03:40:28;2.33;;;2.13;;
23814;SDS011;12088;53.078;8.720;2022-11-15T03:45:45;5.60;;;1.93;;
23814;SDS011;12088;53.078;8.720;2022-11-15T03:48:17;4.80;;;2.43;;
23814;SDS011;12088;53.078;8.720;2022-11-15T03:50:46;2.67;;;2.03;;
23814;SDS011;12088;53.078;8.720;2022-11-15T03:53:12;1.83;;;1.73;;
23814;SDS011;12088;53.078;8.720;2022-11-15T03:55:38;4.83;;;2.63;;
23814;SDS011;12088;53.078;8.720;2022-11-15T03:58:04;2.60;;;2.40;;
23814;SDS011;12088;53.078;8.720;2022-11-15T04:00:30;2.53;;;2.33;;
23814;SDS011;12088;53.078;8.720;2022-11-15T04:02:55;3.67;;;2.60;;
23814;SDS011;12088;53.078;8.720;2022-11-15T04:05:21;2.37;;;2.27;;
23814;SDS011;12088;53.078;8.720;2022-11-15T04:07:47;4.10;;;2.43;;
23814;SDS011;12088;53.078;8.720;2022-11-15T04:10:12;2.77;;;2.43;;
23814;SDS011;12088;53.078;8.720;2022-11-15T04:12:39;2.97;;;2.77;;
23814;SDS011;12088;53.078;8.720;2022-11-15T04:15:09;1.80;;;1.70;;
23814;SDS011;12088;53.078;8.720;2022-11-15T04:17:38;2.80;;;2.60;;
23814;SDS011;12088;53.078;8.720;2022-11-15T04:20:10;4.23;;;2.50;;
23814;SDS011;12088;53.078;8.720;2022-11-15T04:22:57;5.93;;;2.90;;
23814;SDS011;12088;53.078;8.720;2022-11-15T04:25:43;2.53;;;2.40;;
23814;SDS011;12088;53.078;8.720;2022-11-15T04:28:09;2.43;;;1.40;;
23814;SDS011;12088;53.078;8.720;2022-11-15T04:30:35;1.70;;;1.60;;
23814;SDS011;12088;53.078;8.720;2022-11-15T04:33:01;1.20;;;1.10;;
23814;SDS011;12088;53.078;8.720;2022-11-15T04:35:26;5.63;;;1.87;;
23814;SDS011;12088;53.078;8.720;2022-11-15T04:37:52;2.30;;;1.57;;
23814;SDS011;12088;53.078;8.720;2022-11-15T04:40:18;5.57;;;2.83;;
23814;SDS011;12088;53.078;8.720;2022-11-15T04:42:44;1.07;;;1.07;;
23814;SDS011;12088;53.078;8.720;2022-11-15T04:45:09;4.77;;;2.80;;
23814;SDS011;12088;53.078;8.720;2022-11-15T04:47:35;3.47;;;1.73;;
23814;SDS011;12088;53.078;8.720;2022-11-15T04:50:01;1.67;;;1.57;;
23814;SDS011;12088;53.078;8.720;2022-11-15T04:52:27;3.00;;;2.77;;
23814;SDS011;12088;53.078;8.720;2022-11-15T04:54:53;1.53;;;1.43;;
23814;SDS011;12088;53.078;8.720;2022-11-15T04:57:18;2.97;;;2.77;;
23814;SDS011;12088;53.078;8.720;2022-11-15T04:59:44;1.80;;;1.70;;
23814;SDS011;12088;53.078;8.720;2022-11-15T05:02:09;5.57;;;2.33;;
23814;SDS011;12088;53.078;8.720;2022-11-15T05:04:35;2.10;;;1.93;;
23814;SDS011;12088;53.078;8.720;2022-11-15T05:07:00;2.00;;;1.90;;
23814;SDS011;12088;53.078;8.720;2022-11-15T05:09:27;2.33;;;2.13;;
23814;SDS011;12088;53.078;8.720;2022-11-15T05:11:52;2.10;;;1.97;;
23814;SDS011;12088;53.078;8.720;2022-11-15T05:14:18;2.93;;;0.87;;
23814;SDS011;12088;53.078;8.720;2022-11-15T05:16:43;1.80;;;1.47;;
23814;SDS011;12088;53.078;8.720;2022-11-15T05:19:09;2.40;;;2.10;;
23814;SDS011;12088;53.078;8.720;2022-11-15T05:21:34;1.77;;;1.67;;
23814;SDS011;12088;53.078;8.720;2022-11-15T05:24:00;3.10;;;2.13;;
23814;SDS011;12088;53.078;8.720;2022-11-15T05:26:26;4.67;;;2.10;;
23814;SDS011;12088;53.078;8.720;2022-11-15T05:28:55;2.50;;;2.30;;
23814;SDS011;12088;53.078;8.720;2022-11-15T05:31:22;1.37;;;1.27;;
23814;SDS011;12088;53.078;8.720;2022-11-15T05:33:49;2.43;;;1.60;;
23814;SDS011;12088;53.078;8.720;2022-11-15T05:36:20;2.83;;;2.27;;
23814;SDS011;12088;53.078;8.720;2022-11-15T05:38:52;1.63;;;1.53;;
23814;SDS011;12088;53.078;8.720;2022-11-15T05:41:19;2.20;;;1.93;;
23814;SDS011;12088;53.078;8.720;2022-11-15T05:43:46;1.50;;;1.40;;
23814;SDS011;12088;53.078;8.720;2022-11-15T05:46:13;3.27;;;2.23;;
23814;SDS011;12088;53.078;8.720;2022-11-15T05:48:40;1.40;;;1.27;;
23814;SDS011;12088;53.078;8.720;2022-11-15T05:51:08;2.23;;;2.03;;
23814;SDS011;12088;53.078;8.720;2022-11-15T05:53:34;3.43;;;2.13;;
23814;SDS011;12088;53.078;8.720;2022-11-15T05:56:02;2.53;;;1.37;;
23814;SDS011;12088;53.078;8.720;2022-11-15T05:58:30;2.93;;;2.73;;
23814;SDS011;12088;53.078;8.720;2022-11-15T06:00:56;12.93;;;2.30;;
23814;SDS011;12088;53.078;8.720;2022-11-15T06:03:22;0.70;;;0.70;;
23814;SDS011;12088;53.078;8.720;2022-11-15T06:05:48;1.93;;;1.83;;
23814;SDS011;12088;53.078;8.720;2022-11-15T06:08:13;5.13;;;2.37;;
23814;SDS011;12088;53.078;8.720;2022-11-15T06:10:39;2.07;;;1.97;;
23814;SDS011;12088;53.078;8.720;2022-11-15T06:13:04;2.33;;;1.60;;
23814;SDS011;12088;53.078;8.720;2022-11-15T06:15:31;2.17;;;1.43;;
23814;SDS011;12088;53.078;8.720;2022-11-15T06:17:58;4.33;;;1.80;;
23814;SDS011;12088;53.078;8.720;2022-11-15T06:20:24;3.17;;;2.80;;
23814;SDS011;12088;53.078;8.720;2022-11-15T06:22:55;1.47;;;0.93;;
23814;SDS011;12088;53.078;8.720;2022-11-15T06:25:22;1.93;;;1.83;;
23814;SDS011;12088;53.078;8.720;2022-11-15T06:27:54;1.93;;;1.83;;
23814;SDS011;12088;53.078;8.720;2022-11-15T06:30:21;1.47;;;1.23;;
23814;SDS011;12088;53.078;8.720;2022-11-15T06:32:47;3.43;;;1.63;;
23814;SDS011;12088;53.078;8.720;2022-11-15T06:35:13;3.67;;;2.87;;
23814;SDS011;12088;53.078;8.720;2022-11-15T06:37:40;2.20;;;2.00;;
23814;SDS011;12088;53.078;8.720;2022-11-15T06:40:06;2.23;;;2.03;;
23814;SDS011;12088;53.078;8.720;2022-11-15T06:42:33;2.03;;;1.90;;
23814;SDS011;12088;53.078;8.720;2022-11-15T06:44:59;1.47;;;1.37;;
23814;SDS011;12088;53.078;8.720;2022-11-15T06:47:24;4.53;;;1.93;;
23814;SDS011;12088;53.078;8.720;2022-11-15T06:49:50;2.30;;;1.47;;
23814;SDS011;12088;53.078;8.720;2022-11-15T06:52:15;1.40;;;1.30;;
23814;SDS011;12088;53.078;8.720;2022-11-15T06:54:43;2.33;;;2.13;;
23814;SDS011;12088;53.078;8.720;2022-11-15T06:57:09;5.27;;;2.23;;
23814;SDS011;12088;53.078;8.720;2022-11-15T06:59:34;1.60;;;1.50;;
23814;SDS011;12088;53.078;8.720;2022-11-15T07:02:00;2.03;;;1.93;;
23814;SDS011;12088;53.078;8.720;2022-11-15T07:04:25;2.00;;;1.77;;
23814;SDS011;12088;53.078;8.720;2022-11-15T07:06:51;2.17;;;2.03;;
23814;SDS011;12088;53.078;8.720;2022-11-15T07:09:16;1.43;;;0.80;;
23814;SDS011;12088;53.078;8.720;2022-11-15T07:11:42;1.77;;;1.60;;
23814;SDS011;12088;53.078;8.720;2022-11-15T07:14:07;2.60;;;1.83;;
23814;SDS011;12088;53.078;8.720;2022-11-15T07:16:33;2.47;;;1.80;;
23814;SDS011;12088;53.078;8.720;2022-11-15T07:18:58;1.87;;;1.70;;
23814;SDS011;12088;53.078;8.720;2022-11-15T07:21:24;1.87;;;1.63;;
23814;SDS011;12088;53.078;8.720;2022-11-15T07:23:49;1.40;;;1.30;;
23814;SDS011;12088;53.078;8.720;2022-11-15T07:26:15;3.60;;;1.73;;
23814;SDS011;12088;53.078;8.720;2022-11-15T07:28:41;6.33;;;4.30;;
23814;SDS011;12088;53.078;8.720;2022-11-15T07:31:07;4.13;;;3.37;;
23814;SDS011;12088;53.078;8.720;2022-11-15T07:33:33;10.43;;;7.03;;
23814;SDS011;12088;53.078;8.720;2022-11-15T07:36:00;5.37;;;4.00;;
23814;SDS011;12088;53.078;8.720;2022-11-15T07:38:27;4.23;;;3.80;;
23814;SDS011;12088;53.078;8.720;2022-11-15T07:40:57;3.43;;;3.17;;
23814;SDS011;12088;53.078;8.720;2022-11-15T07:43:27;2.17;;;1.97;;
23814;SDS011;12088;53.078;8.720;2022-11-15T07:45:54;2.23;;;2.03;;
23814;SDS011;12088;53.078;8.720;2022-11-15T07:48:20;2.23;;;2.10;;
23814;SDS011;12088;53.078;8.720;2022-11-15T07:50:45;2.80;;;2.20;;
23814;SDS011;12088;53.078;8.720;2022-11-15T07:53:11;2.87;;;2.57;;
23814;SDS011;12088;53.078;8.720;2022-11-15T07:55:37;2.13;;;1.93;;
23814;SDS011;12088;53.078;8.720;2022-11-15T07:58:05;1.47;;;1.37;;
23814;SDS011;12088;53.078;8.720;2022-11-15T08:00:32;1.07;;;1.07;;
23814;SDS011;12088;53.078;8.720;2022-11-15T08:03:01;2.87;;;1.73;;
23814;SDS011;12088;53.078;8.720;2022-11-15T08:05:27;2.67;;;1.97;;
23814;SDS011;12088;53.078;8.720;2022-11-15T08:07:54;2.20;;;1.73;;
23814;SDS011;12088;53.078;8.720;2022-11-15T08:10:20;2.10;;;1.67;;
23814;SDS011;12088;53.078;8.720;2022-11-15T08:12:46;2.23;;;2.10;;
23814;SDS011;12088;53.078;8.720;2022-11-15T08:15:12;2.27;;;1.40;;
23814;SDS011;12088;53.078;8.720;2022-11-15T08:17:37;1.73;;;1.33;;
23814;SDS011;12088;53.078;8.720;2022-11-15T08:20:03;1.80;;;1.70;;
23814;SDS011;12088;53.078;8.720;2022-11-15T08:22:28;2.23;;;2.03;;
23814;SDS011;12088;53.078;8.720;2022-11-15T08:24:54;1.77;;;1.67;;
23814;SDS011;12088;53.078;8.720;2022-11-15T08:27:19;1.80;;;1.70;;
23814;SDS011;12088;53.078;8.720;2022-11-15T08:29:45;2.30;;;2.10;;
23814;SDS011;12088;53.078;8.720;2022-11-15T08:32:12;1.93;;;1.83;;
23814;SDS011;12088;53.078;8.720;2022-11-15T08:34:38;1.83;;;1.73;;
23814;SDS011;12088;53.078;8.720;2022-11-15T08:37:03;2.60;;;1.97;;
23814;SDS011;12088;53.078;8.720;2022-11-15T08:39:29;1.57;;;1.47;;
23814;SDS011;12088;53.078;8.720;2022-11-15T08:41:55;2.43;;;2.10;;
23814;SDS011;12088;53.078;8.720;2022-11-15T08:44:20;7.20;;;2.07;;
23814;SDS011;12088;53.078;8.720;2022-11-15T08:46:46;1.27;;;1.17;;
23814;SDS011;12088;53.078;8.720;2022-11-15T08:49:12;1.30;;;1.20;;
23814;SDS011;12088;53.078;8.720;2022-11-15T08:51:37;2.07;;;1.90;;
23814;SDS011;12088;53.078;8.720;2022-11-15T08:54:03;1.43;;;1.33;;
23814;SDS011;12088;53.078;8.720;2022-11-15T08:56:28;2.90;;;2.47;;
23814;SDS011;12088;53.078;8.720;2022-11-15T08:58:54;3.70;;;1.30;;
23814;SDS011;12088;53.078;8.720;2022-11-15T09:01:20;2.47;;;1.07;;
23814;SDS011;12088;53.078;8.720;2022-11-15T09:03:46;2.10;;;2.00;;
23814;SDS011;12088;53.078;8.720;2022-11-15T09:06:12;2.80;;;1.90;;
23814;SDS011;12088;53.078;8.720;2022-11-15T09:08:38;2.37;;;1.33;;
23814;SDS011;12088;53.078;8.720;2022-11-15T09:11:04;1.80;;;1.67;;
23814;SDS011;12088;53.078;8.720;2022-11-15T09:13:31;2.40;;;2.20;;
23814;SDS011;12088;53.078;8.720;2022-11-15T09:15:57;1.97;;;1.80;;
23814;SDS011;12088;53.078;8.720;2022-11-15T09:18:24;1.43;;;1.33;;
23814;SDS011;12088;53.078;8.720;2022-11-15T09:20:50;2.20;;;1.93;;
23814;SDS011;12088;53.078;8.720;2022-11-15T09:23:15;1.80;;;1.70;;
23814;SDS011;12088;53.078;8.720;2022-11-15T09:25:41;3.57;;;2.53;;
23814;SDS011;12088;53.078;8.720;2022-11-15T09:28:06;3.03;;;1.17;;
23814;SDS011;12088;53.078;8.720;2022-11-15T09:30:33;3.00;;;2.30;;
23814;SDS011;12088;53.078;8.720;2022-11-15T09:32:58;6.53;;;4.27;;
23814;SDS011;12088;53.078;8.720;2022-11-15T09:35:30;3.37;;;2.23;;
23814;SDS011;12088;53.078;8.720;2022-11-15T09:37:57;2.07;;;1.90;;
23814;SDS011;12088;53.078;8.720;2022-11-15T09:40:22;1.40;;;1.33;;
23814;SDS011;12088;53.078;8.720;2022-11-15T09:42:55;4.83;;;1.93;;
23814;SDS011;12088;53.078;8.720;2022-11-15T09:50:42;1.40;;;1.30;;
23814;SDS011;12088;53.078;8.720;2022-11-15T09:53:14;1.67;;;1.53;;
23814;SDS011;12088;53.078;8.720;2022-11-15T09:56:05;1.33;;;1.23;;
23814;SDS011;12088;53.078;8.720;2022-11-15T10:01:28;1.93;;;1.83;;
23814;SDS011;12088;53.078;8.720;2022-11-15T10:03:58;2.40;;;1.83;;
23814;SDS011;12088;53.078;8.720;2022-11-15T10:06:25;4.00;;;1.73;;
23814;SDS011;12088;53.078;8.720;2022-11-15T10:08:59;2.17;;;1.67;;
23814;SDS011;12088;53.078;8.720;2022-11-15T10:11:32;1.30;;;1.17;;
23814;SDS011;12088;53.078;8.720;2022-11-15T10:14:01;1.80;;;1.70;;
23814;SDS011;12088;53.078;8.720;2022-11-15T10:19:28;3.80;;;1.40;;
23814;SDS011;12088;53.078;8.720;2022-11-15T10:22:11;3.40;;;1.87;;
23814;SDS011;12088;53.078;8.720;2022-11-15T10:27:28;2.37;;;1.50;;
23814;SDS011;12088;53.078;8.720;2022-11-15T10:29:54;2.80;;;1.57;;
23814;SDS011;12088;53.078;8.720;2022-11-15T10:32:20;1.30;;;1.20;;
23814;SDS011;12088;53.078;8.720;2022-11-15T10:34:47;3.13;;;2.87;;
23814;SDS011;12088;53.078;8.720;2022-11-15T10:37:14;1.60;;;1.50;;
23814;SDS011;12088;53.078;8.720;2022-11-15T10:40:04;0.90;;;0.83;;
23814;SDS011;12088;53.078;8.720;2022-11-15T10:42:31;1.43;;;1.33;;
23814;SDS011;12088;53.078;8.720;2022-11-15T10:44:57;1.33;;;1.23;;
23814;SDS011;12088;53.078;8.720;2022-11-15T10:47:29;2.43;;;1.80;;
23814;SDS011;12088;53.078;8.720;2022-11-15T10:52:23;1.93;;;1.80;;
23814;SDS011;12088;53.078;8.720;2022-11-15T10:57:29;4.80;;;2.13;;
23814;SDS011;12088;53.078;8.720;2022-11-15T11:00:00;2.10;;;1.20;;
23814;SDS011;12088;53.078;8.720;2022-11-15T11:05:25;12.18;;;1.30;;
23814;SDS011;12088;53.078;8.720;2022-11-15T11:10:36;2.05;;;1.10;;
23814;SDS011;12088;53.078;8.720;2022-11-15T11:13:12;3.45;;;1.50;;
23814;SDS011;12088;53.078;8.720;2022-11-15T11:15:39;2.25;;;1.73;;
23814;SDS011;12088;53.078;8.720;2022-11-15T11:18:13;1.13;;;1.03;;
23814;SDS011;12088;53.078;8.720;2022-11-15T11:20:47;2.80;;;1.93;;
23814;SDS011;12088;53.078;8.720;2022-11-15T11:26:05;2.73;;;1.23;;
23814;SDS011;12088;53.078;8.720;2022-11-15T11:34:29;1.55;;;1.23;;
23814;SDS011;12088;53.078;8.720;2022-11-15T11:37:19;3.83;;;1.50;;
23814;SDS011;12088;53.078;8.720;2022-11-15T11:50:56;1.60;;;1.17;;
23814;SDS011;12088;53.078;8.720;2022-11-15T11:53:32;1.88;;;1.45;;
23814;SDS011;12088;53.078;8.720;2022-11-15T11:56:13;1.25;;;1.15;;
23814;SDS011;12088;53.078;8.720;2022-11-15T11:58:52;1.02;;;0.90;;
23814;SDS011;12088;53.078;8.720;2022-11-15T12:01:25;1.67;;;1.33;;
23814;SDS011;12088;53.078;8.720;2022-11-15T12:03:56;3.00;;;1.15;;
23814;SDS011;12088;53.078;8.720;2022-11-15T12:06:36;0.77;;;0.55;;
23814;SDS011;12088;53.078;8.720;2022-11-15T12:14:52;0.90;;;0.90;;
23814;SDS011;12088;53.078;8.720;2022-11-15T12:17:28;0.77;;;0.77;;
23814;SDS011;12088;53.078;8.720;2022-11-15T12:19:59;0.80;;;0.80;;
23814;SDS011;12088;53.078;8.720;2022-11-15T12:22:41;0.50;;;0.50;;
23814;SDS011;12088;53.078;8.720;2022-11-15T12:25:30;1.20;;;0.90;;
23814;SDS011;12088;53.078;8.720;2022-11-15T12:30:42;8.80;;;0.80;;
23814;SDS011;12088;53.078;8.720;2022-11-15T12:36:03;2.57;;;1.00;;
23814;SDS011;12088;53.078;8.720;2022-11-15T12:43:52;0.87;;;0.80;;
23814;SDS011;12088;53.078;8.720;2022-11-15T12:51:18;1.03;;;0.80;;
23814;SDS011;12088;53.078;8.720;2022-11-15T12:53:46;0.70;;;0.70;;
23814;SDS011;12088;53.078;8.720;2022-11-15T13:01:06;0.40;;;0.40;;
23814;SDS011;12088;53.078;8.720;2022-11-15T13:03:32;0.30;;;0.30;;
23814;SDS011;12088;53.078;8.720;2022-11-15T13:05:59;0.40;;;0.40;;
23814;SDS011;12088;53.078;8.720;2022-11-15T13:08:35;0.73;;;0.73;;
23814;SDS011;12088;53.078;8.720;2022-11-15T13:19:47;0.40;;;0.40;;
23814;SDS011;12088;53.078;8.720;2022-11-15T13:22:18;0.33;;;0.33;;
23814;SDS011;12088;53.078;8.720;2022-11-15T13:25:02;0.50;;;0.50;;
23814;SDS011;12088;53.078;8.720;2022-11-15T13:27:30;0.50;;;0.50;;
23814;SDS011;12088;53.078;8.720;2022-11-15T13:29:56;0.93;;;0.90;;
23814;SDS011;12088;53.078;8.720;2022-11-15T13:32:22;0.40;;;0.40;;
23814;SDS011;12088;53.078;8.720;2022-11-15T13:34:48;0.67;;;0.67;;
23814;SDS011;12088;53.078;8.720;2022-11-15T13:39:46;0.70;;;0.70;;
23814;SDS011;12088;53.078;8.720;2022-11-15T13:42:17;0.60;;;0.60;;
23814;SDS011;12088;53.078;8.720;2022-11-15T13:47:24;0.43;;;0.43;;
23814;SDS011;12088;53.078;8.720;2022-11-15T13:49:57;0.90;;;0.50;;
23814;SDS011;12088;53.078;8.720;2022-11-15T13:52:26;0.60;;;0.60;;
23814;SDS011;12088;53.078;8.720;2022-11-15T13:55:01;0.60;;;0.60;;
23814;SDS011;12088;53.078;8.720;2022-11-15T14:00:34;1.00;;;0.70;;
23814;SDS011;12088;53.078;8.720;2022-11-15T14:03:07;0.30;;;0.30;;
23814;SDS011;12088;53.078;8.720;2022-11-15T14:05:40;0.30;;;0.30;;
23814;SDS011;12088;53.078;8.720;2022-11-15T14:08:20;0.70;;;0.70;;
23814;SDS011;12088;53.078;8.720;2022-11-15T14:10:48;0.70;;;0.67;;
23814;SDS011;12088;53.078;8.720;2022-11-15T14:13:38;0.43;;;0.43;;
23814;SDS011;12088;53.078;8.720;2022-11-15T14:16:19;0.60;;;0.60;;
23814;SDS011;12088;53.078;8.720;2022-11-15T14:18:57;0.53;;;0.53;;
23814;SDS011;12088;53.078;8.720;2022-11-15T14:21:22;4.33;;;0.83;;
23814;SDS011;12088;53.078;8.720;2022-11-15T14:23:48;0.43;;;0.43;;
23814;SDS011;12088;53.078;8.720;2022-11-15T14:28:56;1.30;;;0.47;;
23814;SDS011;12088;53.078;8.720;2022-11-15T14:31:22;0.40;;;0.40;;
23814;SDS011;12088;53.078;8.720;2022-11-15T14:33:47;0.40;;;0.40;;
23814;SDS011;12088;53.078;8.720;2022-11-15T14:36:20;0.83;;;0.83;;
23814;SDS011;12088;53.078;8.720;2022-11-15T14:38:46;0.23;;;0.23;;
23814;SDS011;12088;53.078;8.720;2022-11-15T14:43:41;0.40;;;0.40;;
23814;SDS011;12088;53.078;8.720;2022-11-15T14:46:06;0.70;;;0.70;;
23814;SDS011;12088;53.078;8.720;2022-11-15T14:48:32;0.63;;;0.60;;
23814;SDS011;12088;53.078;8.720;2022-11-15T14:50:57;0.60;;;0.60;;
23814;SDS011;12088;53.078;8.720;2022-11-15T14:53:23;0.97;;;0.87;;
23814;SDS011;12088;53.078;8.720;2022-11-15T14:55:48;0.53;;;0.53;;
23814;SDS011;12088;53.078;8.720;2022-11-15T14:58:14;0.50;;;0.50;;
23814;SDS011;12088;53.078;8.720;2022-11-15T15:00:40;0.40;;;0.40;;
23814;SDS011;12088;53.078;8.720;2022-11-15T15:03:06;1.70;;;0.40;;
23814;SDS011;12088;53.078;8.720;2022-11-15T15:05:42;1.03;;;0.77;;
23814;SDS011;12088;53.078;8.720;2022-11-15T15:08:09;0.60;;;0.60;;
23814;SDS011;12088;53.078;8.720;2022-11-15T15:10:42;0.73;;;0.73;;
23814;SDS011;12088;53.078;8.720;2022-11-15T15:15:41;1.13;;;0.70;;
23814;SDS011;12088;53.078;8.720;2022-11-15T15:18:07;0.40;;;0.40;;
23814;SDS011;12088;53.078;8.720;2022-11-15T15:20:34;1.03;;;0.60;;
23814;SDS011;12088;53.078;8.720;2022-11-15T15:23:01;0.30;;;0.30;;
23814;SDS011;12088;53.078;8.720;2022-11-15T15:25:27;1.53;;;0.70;;
23814;SDS011;12088;53.078;8.720;2022-11-15T15:27:54;0.43;;;0.43;;
23814;SDS011;12088;53.078;8.720;2022-11-15T15:30:21;12.93;;;0.87;;
23814;SDS011;12088;53.078;8.720;2022-11-15T15:32:50;3.90;;;0.80;;
23814;SDS011;12088;53.078;8.720;2022-11-15T15:35:16;5.10;;;0.87;;
23814;SDS011;12088;53.078;8.720;2022-11-15T15:37:43;0.50;;;0.50;;
23814;SDS011;12088;53.078;8.720;2022-11-15T15:42:41;0.67;;;0.67;;
23814;SDS011;12088;53.078;8.720;2022-11-15T15:45:07;0.40;;;0.40;;
23814;SDS011;12088;53.078;8.720;2022-11-15T15:47:34;0.60;;;0.60;;
23814;SDS011;12088;53.078;8.720;2022-11-15T15:49:59;1.10;;;1.03;;
23814;SDS011;12088;53.078;8.720;2022-11-15T15:52:25;0.40;;;0.40;;
23814;SDS011;12088;53.078;8.720;2022-11-15T15:54:50;0.30;;;0.30;;
23814;SDS011;12088;53.078;8.720;2022-11-15T15:57:16;0.53;;;0.53;;
23814;SDS011;12088;53.078;8.720;2022-11-15T15:59:42;0.70;;;0.70;;
23814;SDS011;12088;53.078;8.720;2022-11-15T16:02:08;0.73;;;0.73;;
23814;SDS011;12088;53.078;8.720;2022-11-15T16:04:39;0.80;;;0.80;;
23814;SDS011;12088;53.078;8.720;2022-11-15T16:07:05;3.17;;;0.87;;
23814;SDS011;12088;53.078;8.720;2022-11-15T16:09:30;0.87;;;0.87;;
23814;SDS011;12088;53.078;8.720;2022-11-15T16:12:14;1.00;;;0.90;;
23814;SDS011;12088;53.078;8.720;2022-11-15T16:14:41;1.13;;;0.83;;
23814;SDS011;12088;53.078;8.720;2022-11-15T16:17:10;0.53;;;0.53;;
23814;SDS011;12088;53.078;8.720;2022-11-15T16:19:42;0.60;;;0.60;;
23814;SDS011;12088;53.078;8.720;2022-11-15T16:22:08;1.33;;;1.17;;
23814;SDS011;12088;53.078;8.720;2022-11-15T16:24:33;0.60;;;0.60;;
23814;SDS011;12088;53.078;8.720;2022-11-15T16:26:59;0.60;;;0.60;;
23814;SDS011;12088;53.078;8.720;2022-11-15T16:29:24;0.77;;;0.77;;
23814;SDS011;12088;53.078;8.720;2022-11-15T16:31:50;0.60;;;0.60;;
23814;SDS011;12088;53.078;8.720;2022-11-15T16:34:16;0.80;;;0.80;;
23814;SDS011;12088;53.078;8.720;2022-11-15T16:36:42;0.83;;;0.83;;
23814;SDS011;12088;53.078;8.720;2022-11-15T16:39:11;1.10;;;1.00;;
23814;SDS011;12088;53.078;8.720;2022-11-15T16:41:43;1.27;;;0.83;;
23814;SDS011;12088;53.078;8.720;2022-11-15T16:44:11;0.47;;;0.47;;
23814;SDS011;12088;53.078;8.720;2022-11-15T16:46:38;6.07;;;1.20;;
23814;SDS011;12088;53.078;8.720;2022-11-15T16:49:10;3.83;;;0.83;;
23814;SDS011;12088;53.078;8.720;2022-11-15T16:51:38;0.40;;;0.40;;
23814;SDS011;12088;53.078;8.720;2022-11-15T16:54:05;1.03;;;0.80;;
23814;SDS011;12088;53.078;8.720;2022-11-15T16:56:31;0.70;;;0.70;;